Time;durP1;ratioP1;P1;durP2;ratioP2;P2;SDS_P1;SDS_P2;PMS_P1;PMS_P2;Temp;Humidity;BMP_temperature;BMP_pressure;BME280_temperature;BME280_humidity;BME280_pressure;Samples;Min_cycle;Max_cycle;Signal;HPM_P1;HPM_P2
2022/01/16 00:01:06;;;;;;;83.85;35.20;;;;;;;0.31;100.00;102341.16;5004186;28;20022;-58
2022/01/16 00:06:17;;;;;;;75.93;35.67;;;;;;;0.25;100.00;102360.56;4997057;28;20441;-58
2022/01/16 00:08:42;;;;;;;82.32;35.92;;;;;;;0.23;100.00;102351.72;5007233;28;20030;-58
2022/01/16 00:11:08;;;;;;;79.03;33.92;;;;;;;0.23;100.00;102346.31;5004220;28;20041;-62
2022/01/16 00:13:33;;;;;;;69.80;34.38;;;;;;;0.20;100.00;102346.56;5005860;28;20034;-58
2022/01/16 00:15:58;;;;;;;72.72;32.75;;;;;;;0.18;100.00;102349.41;4994018;28;20046;-58
2022/01/16 00:18:27;;;;;;;77.18;34.90;;;;;;;0.17;100.00;102358.50;4992513;28;20500;-58
2022/01/16 00:20:53;;;;;;;77.18;36.10;;;;;;;0.16;100.00;102350.53;4988566;28;20104;-58
2022/01/16 00:23:24;;;;;;;71.93;32.92;;;;;;;0.16;100.00;102350.53;5006310;28;20488;-58
2022/01/16 00:25:51;;;;;;;75.18;32.80;;;;;;;0.14;100.00;102356.03;4999231;28;20038;-58
2022/01/16 00:28:17;;;;;;;66.25;29.45;;;;;;;0.11;100.00;102352.75;4986164;28;20456;-58
2022/01/16 00:30:42;;;;;;;72.85;32.85;;;;;;;0.09;100.00;102335.78;4987751;28;20141;-58
2022/01/16 00:33:07;;;;;;;72.25;32.72;;;;;;;0.11;100.00;102332.00;5004157;28;20541;-58
2022/01/16 00:35:32;;;;;;;81.70;33.30;;;;;;;0.12;100.00;102343.66;5004808;28;20412;-58
2022/01/16 00:37:58;;;;;;;70.63;33.53;;;;;;;0.11;100.00;102339.25;5007004;28;20026;-58
2022/01/16 00:40:23;;;;;;;76.25;32.13;;;;;;;0.14;100.00;102342.53;5003657;28;20389;-58
2022/01/16 00:42:49;;;;;;;76.88;33.08;;;;;;;0.12;100.00;102341.81;4993519;28;20030;-58
2022/01/16 00:45:14;;;;;;;79.35;34.00;;;;;;;0.15;100.00;102346.06;4998291;28;20029;-58
2022/01/16 00:47:39;;;;;;;74.65;34.55;;;;;;;0.16;100.00;102351.38;4989746;28;20014;-58
2022/01/16 00:50:05;;;;;;;74.13;35.95;;;;;;;0.16;100.00;102343.28;5003066;28;20096;-58
2022/01/16 00:52:30;;;;;;;75.82;34.13;;;;;;;0.16;100.00;102354.09;5006603;28;20481;-58
2022/01/16 00:54:58;;;;;;;75.85;33.40;;;;;;;0.15;100.00;102349.66;4990316;28;20126;-58
2022/01/16 00:57:24;;;;;;;75.03;34.92;;;;;;;0.18;100.00;102321.53;5000477;28;20038;-58
2022/01/16 00:59:49;;;;;;;76.50;33.72;;;;;;;0.23;100.00;102295.84;4999714;28;20034;-58
2022/01/16 01:02:14;;;;;;;81.18;34.72;;;;;;;0.22;100.00;102299.53;4992188;28;20448;-58
2022/01/16 01:04:41;;;;;;;87.45;34.53;;;;;;;0.22;100.00;102312.19;4986240;28;20039;-58
2022/01/16 01:07:07;;;;;;;86.68;37.50;;;;;;;0.25;100.00;102312.81;4986346;28;20839;-59
2022/01/16 01:09:32;;;;;;;84.03;35.25;;;;;;;0.28;100.00;102303.56;5005821;28;20117;-58
2022/01/16 01:11:57;;;;;;;87.13;36.95;;;;;;;0.28;100.00;102321.63;5004088;28;20523;-58
2022/01/16 01:14:37;;;;;;;84.20;37.47;;;;;;;0.30;100.00;102314.25;4986971;28;20038;-57
2022/01/16 01:17:04;;;;;;;85.00;36.50;;;;;;;0.29;100.00;102332.28;4992341;28;20037;-59
2022/01/16 01:19:33;;;;;;;86.80;37.03;;;;;;;0.31;100.00;102314.13;5006048;28;20578;-58
2022/01/16 01:21:59;;;;;;;93.15;37.00;;;;;;;0.31;100.00;102316.84;4999961;28;20432;-58
2022/01/16 01:24:26;;;;;;;91.25;37.30;;;;;;;0.33;100.00;102293.22;4985116;28;20496;-58
2022/01/16 01:26:59;;;;;;;91.40;35.42;;;;;;;0.34;100.00;102302.19;4989514;28;20030;-58
2022/01/16 01:29:28;;;;;;;90.72;36.13;;;;;;;0.37;100.00;102320.88;5001554;28;20029;-58
2022/01/16 01:31:53;;;;;;;91.38;37.13;;;;;;;0.40;100.00;102320.59;5003331;28;20038;-58
2022/01/16 01:34:18;;;;;;;94.93;36.42;;;;;;;0.39;100.00;102314.34;5005065;28;20053;-57
2022/01/16 01:36:48;;;;;;;88.25;35.97;;;;;;;0.37;100.00;102283.88;4999140;28;20027;-58
2022/01/16 01:39:13;;;;;;;84.88;36.17;;;;;;;0.34;100.00;102234.63;4986476;28;20033;-58
2022/01/16 01:41:39;;;;;;;97.05;37.03;;;;;;;0.34;100.00;102240.91;5003214;28;20041;-58
2022/01/16 01:52:16;;;;;;;95.13;38.05;;;;;;;0.32;100.00;102275.31;4999705;28;20068;-58
2022/01/16 01:54:42;;;;;;;108.60;37.85;;;;;;;0.33;100.00;102278.88;4990822;28;20058;-58
2022/01/16 01:57:07;;;;;;;96.15;38.72;;;;;;;0.35;100.00;102276.88;4997243;28;20754;-57
2022/01/16 01:59:32;;;;;;;97.22;37.55;;;;;;;0.35;100.00;102304.75;4990893;28;20275;-58
2022/01/16 02:01:58;;;;;;;103.85;37.15;;;;;;;0.37;100.00;102293.84;5003755;28;20030;-58
2022/01/16 02:04:23;;;;;;;107.57;39.17;;;;;;;0.40;100.00;102310.63;5002310;28;20030;-58
2022/01/16 02:06:49;;;;;;;120.55;39.85;;;;;;;0.37;100.00;102301.94;5003828;28;20029;-58
2022/01/16 02:09:14;;;;;;;104.38;40.85;;;;;;;0.39;100.00;102313.47;5004564;28;20065;-58
2022/01/16 02:11:39;;;;;;;106.53;39.50;;;;;;;0.42;100.00;102319.50;4989934;28;20030;-58
2022/01/16 02:35:55;;;;;;;128.80;42.83;;;;;;;0.38;100.00;102334.25;4946382;28;20139;-58
2022/01/16 02:38:21;;;;;;;119.25;42.35;;;;;;;0.37;100.00;102337.94;4999169;28;20019;-58
2022/01/16 02:40:58;;;;;;;122.70;43.38;;;;;;;0.36;100.00;102330.81;4984879;28;20429;-58
2022/01/16 02:43:30;;;;;;;128.88;43.95;;;;;;;0.36;100.00;102330.81;5000276;28;20034;-58
2022/01/16 02:46:35;;;;;;;108.80;43.60;;;;;;;0.34;100.00;102321.97;4989740;28;20041;-58
2022/01/16 02:48:45;;;;;;;122.95;46.45;;;;;;;0.33;100.00;102311.28;4998549;28;20038;-58
2022/01/16 02:51:11;;;;;;;133.82;45.30;;;;;;;0.32;100.00;102310.44;4993797;28;20033;-58
2022/01/16 02:53:36;;;;;;;116.65;44.28;;;;;;;0.28;100.00;102300.88;5002346;28;20034;-58
2022/01/16 02:56:01;;;;;;;108.28;43.97;;;;;;;0.30;100.00;102293.47;5002778;28;20552;-60
2022/01/16 02:58:26;;;;;;;126.07;46.00;;;;;;;0.29;100.00;102296.31;4999081;28;20050;-58
2022/01/16 03:00:52;;;;;;;132.65;44.45;;;;;;;0.30;100.00;102279.97;4998953;28;20090;-58
2022/01/16 03:03:17;;;;;;;135.13;43.53;;;;;;;0.30;100.00;102285.38;4994957;28;20038;-58
2022/01/16 03:05:43;;;;;;;126.05;45.25;;;;;;;0.24;100.00;102277.78;4985456;28;20121;-58
2022/01/16 03:08:08;;;;;;;127.32;45.20;;;;;;;0.23;100.00;102278.78;4993413;28;20380;-58
2022/01/16 03:11:00;;;;;;;121.28;42.88;;;;;;;0.27;100.00;102280.25;5003205;28;20066;-58
2022/01/16 03:13:28;;;;;;;122.20;44.83;;;;;;;0.23;100.00;102271.53;4984618;28;20381;-58
2022/01/16 03:15:54;;;;;;;119.20;44.65;;;;;;;0.28;100.00;102271.13;4984345;28;20038;-58
2022/01/16 03:23:29;;;;;;;101.85;42.67;;;;;;;0.27;100.00;102277.53;4999675;28;20088;-58
2022/01/16 03:25:55;;;;;;;105.13;42.97;;;;;;;0.25;100.00;102263.28;4985993;28;20030;-58
2022/01/16 03:28:22;;;;;;;106.03;41.85;;;;;;;0.24;100.00;102261.56;4992487;28;20781;-58
2022/01/16 03:30:48;;;;;;;108.60;40.95;;;;;;;0.21;100.00;102265.41;4983993;28;20085;-58
2022/01/16 03:33:14;;;;;;;104.90;42.40;;;;;;;0.21;100.00;102267.25;5002652;28;20038;-58
2022/01/16 03:35:39;;;;;;;103.35;39.63;;;;;;;0.20;100.00;102254.69;5002189;28;20052;-58
2022/01/16 03:38:05;;;;;;;101.82;41.00;;;;;;;0.22;100.00;102247.34;5003134;28;20030;-57
2022/01/16 03:40:31;;;;;;;98.57;39.65;;;;;;;0.21;100.00;102246.50;5000010;28;20077;-58
2022/01/16 03:43:04;;;;;;;98.55;41.95;;;;;;;0.18;100.00;102240.47;4983633;28;20033;-57
2022/01/16 03:45:29;;;;;;;102.20;41.35;;;;;;;0.17;100.00;102239.63;4988216;28;20025;-58
2022/01/16 03:47:55;;;;;;;106.25;40.95;;;;;;;0.18;100.00;102235.06;4997144;28;20033;-58
2022/01/16 03:50:20;;;;;;;111.50;42.50;;;;;;;0.17;100.00;102245.03;4986529;28;20086;-58
2022/01/16 03:52:45;;;;;;;106.43;42.75;;;;;;;0.19;100.00;102250.28;5006867;28;20029;-58
2022/01/16 03:55:11;;;;;;;100.88;41.15;;;;;;;0.22;100.00;102252.75;4996382;28;20401;-58
2022/01/16 03:57:36;;;;;;;99.63;42.50;;;;;;;0.23;100.00;102254.47;5005916;28;20045;-58
2022/01/16 04:00:04;;;;;;;98.57;43.95;;;;;;;0.26;100.00;102262.31;4996289;28;20030;-59
2022/01/16 04:02:29;;;;;;;105.90;41.63;;;;;;;0.28;100.00;102254.94;5003072;28;20026;-58
2022/01/16 04:04:55;;;;;;;101.93;41.85;;;;;;;0.30;100.00;102261.03;5005134;28;20049;-58
2022/01/16 04:07:26;;;;;;;94.78;41.50;;;;;;;0.30;100.00;102254.78;4995252;28;20029;-58
2022/01/16 04:09:52;;;;;;;104.45;42.95;;;;;;;0.31;100.00;102262.78;5006682;28;20042;-58
2022/01/16 04:12:21;;;;;;;106.78;44.78;;;;;;;0.33;100.00;102260.81;4994281;28;20038;-58
2022/01/16 04:17:20;;;;;;;107.60;46.33;;;;;;;0.33;100.00;102252.69;5005486;28;20145;-58
2022/01/16 04:19:47;;;;;;;103.60;45.38;;;;;;;0.37;100.00;102245.19;5006881;28;20022;-58
2022/01/16 04:22:13;;;;;;;104.60;45.65;;;;;;;0.39;100.00;102246.75;4996477;28;20133;-58
2022/01/16 04:24:38;;;;;;;99.03;46.70;;;;;;;0.39;100.00;102238.66;4999569;28;20038;-58
2022/01/16 04:27:04;;;;;;;107.75;47.08;;;;;;;0.39;100.00;102238.66;5003524;28;20026;-59
2022/01/16 04:29:30;;;;;;;117.20;49.08;;;;;;;0.41;100.00;102242.09;5006526;28;20061;-58
2022/01/16 04:31:56;;;;;;;105.68;47.10;;;;;;;0.40;100.00;102240.38;4996366;28;20096;-58
2022/01/16 04:34:21;;;;;;;109.00;48.47;;;;;;;0.42;100.00;102243.81;5006295;28;20476;-58
2022/01/16 04:36:46;;;;;;;104.97;48.58;;;;;;;0.41;100.00;102236.69;4989567;28;20030;-58
2022/01/16 04:39:15;;;;;;;112.45;48.30;;;;;;;0.43;100.00;102242.81;4992463;28;20036;-58
2022/01/16 04:44:26;;;;;;;118.53;49.58;;;;;;;0.43;100.00;102234.72;5004423;28;20088;-58
2022/01/16 04:46:51;;;;;;;107.57;48.13;;;;;;;0.43;100.00;102237.41;5005747;28;20299;-58
2022/01/16 04:49:17;;;;;;;102.07;47.83;;;;;;;0.42;100.00;102238.41;4998576;28;20026;-58
2022/01/16 04:51:42;;;;;;;116.13;50.63;;;;;;;0.43;100.00;102239.25;4987485;28;20053;-58
2022/01/16 04:54:08;;;;;;;113.93;51.67;;;;;;;0.45;100.00;102235.44;4986257;28;20137;-58
2022/01/16 04:56:33;;;;;;;108.97;50.72;;;;;;;0.47;100.00;102230.75;4987988;28;20053;-58
2022/01/16 04:58:58;;;;;;;119.45;52.58;;;;;;;0.48;100.00;102234.31;5006002;28;20469;-58
2022/01/16 05:01:24;;;;;;;116.60;51.10;;;;;;;0.48;100.00;102223.50;5003096;28;20030;-58
2022/01/16 05:03:49;;;;;;;115.03;54.80;;;;;;;0.50;100.00;102222.38;5004490;28;20433;-58
2022/01/16 05:06:15;;;;;;;107.07;50.65;;;;;;;0.54;100.00;102222.13;4996917;28;20034;-58
2022/01/16 05:08:41;;;;;;;121.82;53.83;;;;;;;0.56;100.00;102217.44;4987695;28;20436;-58
2022/01/16 05:11:08;;;;;;;117.85;53.88;;;;;;;0.60;100.00;102216.19;5004257;28;20034;-58
2022/01/16 05:18:43;;;;;;;119.40;54.45;;;;;;;0.70;100.00;102212.56;5000697;28;20072;-58
2022/01/16 05:21:09;;;;;;;111.32;53.72;;;;;;;0.73;100.00;102217.72;5000218;28;20026;-58
2022/01/16 05:23:35;;;;;;;109.97;53.63;;;;;;;0.72;100.00;102220.56;5005485;28;20030;-58
2022/01/16 05:26:01;;;;;;;109.82;50.20;;;;;;;0.73;100.00;102215.00;4985838;28;20470;-58
2022/01/16 05:28:27;;;;;;;115.13;55.53;;;;;;;0.75;100.00;102214.84;4998745;28;20134;-58
2022/01/16 05:30:53;;;;;;;112.55;55.00;;;;;;;0.78;100.00;102214.59;4998300;28;20029;-60
2022/01/16 05:33:19;;;;;;;114.63;56.33;;;;;;;0.81;100.00;102211.63;5004800;28;20099;-58
2022/01/16 05:35:44;;;;;;;119.00;55.88;;;;;;;0.82;100.00;102218.75;4986037;28;20073;-58
2022/01/16 05:38:10;;;;;;;109.68;53.47;;;;;;;0.83;100.00;102216.91;4985513;28;20026;-58
2022/01/16 05:40:36;;;;;;;115.80;54.53;;;;;;;0.87;100.00;102219.22;5000655;28;20384;-58
2022/01/16 05:43:01;;;;;;;105.72;53.97;;;;;;;0.91;100.00;102217.97;5004660;28;20459;-58
2022/01/16 05:45:27;;;;;;;110.13;55.72;;;;;;;0.91;100.00;102217.97;4991231;28;20505;-58
2022/01/16 05:47:53;;;;;;;107.75;54.35;;;;;;;0.93;100.00;102221.38;4997462;28;20061;-58
2022/01/16 05:50:19;;;;;;;112.78;53.58;;;;;;;0.97;100.00;102228.25;5005005;28;20049;-58
2022/01/16 05:52:44;;;;;;;109.35;55.70;;;;;;;0.97;100.00;102236.38;4996332;28;20050;-58
2022/01/16 05:55:10;;;;;;;109.90;54.22;;;;;;;1.02;100.00;102234.09;4989963;28;20045;-58
2022/01/16 05:57:35;;;;;;;108.57;53.17;;;;;;;1.06;100.00;102225.72;5003360;28;20050;-58
2022/01/16 06:00:01;;;;;;;112.55;56.85;;;;;;;1.04;100.00;102240.22;5003498;28;20026;-58
2022/01/16 06:02:27;;;;;;;105.53;50.90;;;;;;;1.08;100.00;102229.16;5003480;28;20041;-58
2022/01/16 06:04:52;;;;;;;107.28;54.40;;;;;;;1.07;100.00;102228.31;5002234;28;20636;-58
2022/01/16 06:07:18;;;;;;;110.38;54.80;;;;;;;1.11;100.00;102216.19;4984732;28;20029;-58
2022/01/16 06:09:43;;;;;;;114.18;56.70;;;;;;;1.15;100.00;102224.91;4985670;28;20015;-58
2022/01/16 06:12:09;;;;;;;106.65;54.03;;;;;;;1.16;100.00;102226.59;5003078;28;20106;-58
2022/01/16 06:14:34;;;;;;;107.75;55.40;;;;;;;1.21;100.00;102227.91;4987871;28;20033;-59
2022/01/16 06:16:59;;;;;;;118.15;56.17;;;;;;;1.20;100.00;102222.66;5004666;28;20026;-58
2022/01/16 06:19:25;;;;;;;110.78;55.03;;;;;;;1.24;100.00;102224.94;4995838;28;20099;-58
2022/01/16 06:21:50;;;;;;;109.63;55.35;;;;;;;1.27;100.00;102230.09;5002217;28;20371;-58
2022/01/16 06:24:16;;;;;;;105.05;54.60;;;;;;;1.34;100.00;102232.25;4989975;28;20042;-58
2022/01/16 06:26:41;;;;;;;114.70;56.63;;;;;;;1.35;100.00;102229.41;4983685;28;20385;-58
2022/01/16 06:29:07;;;;;;;108.15;54.20;;;;;;;1.37;100.00;102235.56;4996121;28;20041;-58
2022/01/16 06:31:32;;;;;;;114.35;54.45;;;;;;;1.37;100.00;102234.66;5003995;28;20500;-59
2022/01/16 06:34:02;;;;;;;113.93;57.10;;;;;;;1.40;100.00;102243.38;4994234;28;20034;-58
2022/01/16 06:36:28;;;;;;;125.50;57.58;;;;;;;1.44;100.00;102244.81;5003361;28;20049;-58
2022/01/16 06:38:54;;;;;;;116.82;57.22;;;;;;;1.52;100.00;102249.53;4994552;28;20034;-58
2022/01/16 06:41:20;;;;;;;120.20;57.70;;;;;;;1.53;100.00;102256.69;4983091;28;20137;-58
2022/01/16 06:43:45;;;;;;;101.85;49.45;;;;;;;1.60;100.00;102260.56;4991658;28;20037;-58
2022/01/16 06:46:11;;;;;;;122.43;58.03;;;;;;;1.63;100.00;102254.03;5003313;28;20030;-58
2022/01/16 06:48:36;;;;;;;106.22;56.65;;;;;;;1.66;100.00;102251.03;5003178;28;20117;-58
2022/01/16 06:51:02;;;;;;;103.78;52.72;;;;;;;1.75;100.00;102256.47;5003996;28;20026;-59
2022/01/16 06:53:28;;;;;;;108.80;56.15;;;;;;;1.76;100.00;102255.47;4991586;28;20030;-58
2022/01/16 06:55:53;;;;;;;114.93;57.05;;;;;;;1.71;100.00;102267.72;4983036;28;20037;-58
2022/01/16 06:58:18;;;;;;;115.97;56.42;;;;;;;1.77;100.00;102270.75;4994743;28;20042;-58
2022/01/16 07:00:44;;;;;;;110.53;55.00;;;;;;;1.78;100.00;102268.91;5003731;28;20034;-58
2022/01/16 07:03:09;;;;;;;105.88;54.60;;;;;;;1.77;100.00;102270.75;4989328;28;20041;-58
2022/01/16 07:05:34;;;;;;;109.90;54.05;;;;;;;1.81;100.00;102261.31;5001367;28;20106;-58
2022/01/16 07:08:00;;;;;;;104.57;54.03;;;;;;;1.90;100.00;102265.06;4992012;28;20104;-58
2022/01/16 07:10:25;;;;;;;106.95;53.72;;;;;;;1.89;100.00;102266.06;4983497;28;20022;-58
2022/01/16 07:12:50;;;;;;;83.45;44.53;;;;;;;1.99;100.00;102276.94;4994224;28;20526;-58
2022/01/16 07:15:16;;;;;;;103.05;52.67;;;;;;;1.96;100.00;102280.75;5001334;28;20097;-58
2022/01/16 07:17:41;;;;;;;102.80;52.17;;;;;;;1.99;100.00;102290.47;4986854;28;20030;-58
2022/01/16 07:20:07;;;;;;;99.82;52.20;;;;;;;1.96;100.00;102288.03;4996964;28;20072;-58
2022/01/16 07:22:32;;;;;;;92.65;47.92;;;;;;;2.01;100.00;102305.56;4984229;28;20466;-59
2022/01/16 07:24:57;;;;;;;103.20;52.08;;;;;;;2.04;100.00;102313.44;4984422;28;20081;-58
2022/01/16 07:27:23;;;;;;;103.57;53.20;;;;;;;2.06;100.00;102306.03;5003865;28;20040;-58
2022/01/16 07:29:48;;;;;;;105.03;51.15;;;;;;;2.08;100.00;102317.59;5007394;28;20026;-58
2022/01/16 07:32:13;;;;;;;91.45;46.63;;;;;;;2.10;100.00;102316.59;4991436;28;20034;-58
2022/01/16 07:34:38;;;;;;;97.18;50.03;;;;;;;2.10;100.00;102320.16;4993409;28;20026;-58
2022/01/16 07:37:04;;;;;;;96.80;51.95;;;;;;;2.11;100.00;102323.72;5006971;28;20034;-59
2022/01/16 07:39:30;;;;;;;86.80;47.15;;;;;;;2.21;100.00;102335.44;5004123;28;20051;-58
2022/01/16 07:41:55;;;;;;;91.35;46.97;;;;;;;2.19;100.00;102326.59;4986235;28;20113;-58
2022/01/16 07:44:21;;;;;;;90.30;45.10;;;;;;;2.19;100.00;102329.31;4996505;28;20499;-58
2022/01/16 07:46:46;;;;;;;91.47;48.47;;;;;;;2.23;100.00;102325.31;5007105;28;20127;-58
2022/01/16 07:49:12;;;;;;;89.18;45.28;;;;;;;2.26;100.00;102336.72;5005064;28;20143;-58
2022/01/16 07:51:37;;;;;;;89.63;46.60;;;;;;;2.33;100.00;102337.03;5006544;28;20030;-58
2022/01/16 07:54:03;;;;;;;83.10;43.17;;;;;;;2.34;100.00;102333.34;4999328;28;20081;-59
2022/01/16 07:56:28;;;;;;;83.78;45.03;;;;;;;2.35;100.00;102351.31;4986538;28;20077;-58
2022/01/16 07:58:53;;;;;;;83.70;43.95;;;;;;;2.38;100.00;102355.59;5000167;28;20153;-58
2022/01/16 08:01:18;;;;;;;85.15;46.22;;;;;;;2.42;100.00;102354.31;5006918;28;20030;-58
2022/01/16 08:03:44;;;;;;;81.20;44.33;;;;;;;2.42;100.00;102357.03;4998811;28;20100;-58
2022/01/16 08:06:10;;;;;;;85.07;44.35;;;;;;;2.49;100.00;102359.03;4996726;28;20026;-58
2022/01/16 08:08:37;;;;;;;86.00;44.28;;;;;;;2.49;100.00;102364.47;5006819;28;20022;-58
2022/01/16 08:11:02;;;;;;;85.57;45.10;;;;;;;2.56;100.00;102352.03;5004262;28;20072;-59
2022/01/16 08:13:27;;;;;;;79.57;44.17;;;;;;;2.57;100.00;102355.63;5002843;28;20038;-58
2022/01/16 08:15:52;;;;;;;91.43;42.80;;;;;;;2.56;100.00;102346.63;4987498;28;20023;-58
2022/01/16 08:18:18;;;;;;;81.47;42.60;;;;;;;2.62;100.00;102352.47;4993615;28;20476;-58
2022/01/16 08:20:43;;;;;;;83.13;43.10;;;;;;;2.66;100.00;102349.34;5006071;28;20045;-58
2022/01/16 08:23:08;;;;;;;93.38;46.13;;;;;;;2.66;100.00;102343.06;5004051;28;20040;-58
2022/01/16 08:25:34;;;;;;;86.90;43.45;;;;;;;2.67;100.00;102344.78;5005275;28;20046;-58
2022/01/16 08:27:59;;;;;;;87.28;42.53;;;;;;;2.69;100.00;102340.09;5006318;28;20032;-58
2022/01/16 08:30:24;;;;;;;90.97;42.78;;;;;;;2.75;100.00;102331.38;4991891;28;20024;-58
2022/01/16 08:32:50;;;;;;;88.85;45.28;;;;;;;2.77;100.00;102334.78;4987125;28;20030;-58
2022/01/16 08:35:15;;;;;;;85.53;42.78;;;;;;;2.76;100.00;102327.66;4989848;28;20022;-58
2022/01/16 08:37:40;;;;;;;84.20;42.10;;;;;;;2.82;100.00;102335.19;4988632;28;20037;-58
2022/01/16 08:40:07;;;;;;;85.28;43.17;;;;;;;2.86;100.00;102342.06;5005409;28;20041;-58
2022/01/16 08:42:32;;;;;;;88.53;42.90;;;;;;;2.88;100.00;102337.34;5000283;28;20338;-59
2022/01/16 08:44:58;;;;;;;86.13;42.72;;;;;;;2.88;100.00;102341.91;4986843;28;20049;-58
2022/01/16 08:47:23;;;;;;;86.57;44.30;;;;;;;2.94;100.00;102347.63;4990863;28;20091;-58
2022/01/16 08:49:48;;;;;;;89.32;43.58;;;;;;;2.95;100.00;102338.50;5006236;28;20038;-58
2022/01/16 08:52:13;;;;;;;89.30;44.03;;;;;;;2.99;100.00;102350.78;5001278;28;20022;-58
2022/01/16 08:54:39;;;;;;;81.10;42.15;;;;;;;3.03;100.00;102357.59;4985380;28;20034;-58
2022/01/16 08:57:05;;;;;;;84.47;42.28;;;;;;;3.00;100.00;102362.50;4996817;28;20034;-59
2022/01/16 08:59:30;;;;;;;91.22;43.40;;;;;;;3.01;100.00;102364.19;5006503;28;20022;-58
2022/01/16 09:01:56;;;;;;;89.22;43.50;;;;;;;3.16;100.00;102370.91;5005271;28;20542;-58
2022/01/16 09:04:21;;;;;;;92.75;45.20;;;;;;;3.08;100.00;102366.16;5005440;28;20040;-58
2022/01/16 09:06:46;;;;;;;80.53;40.92;;;;;;;3.21;100.00;102367.75;5003923;28;20069;-58
2022/01/16 09:09:12;;;;;;;86.10;41.65;;;;;;;3.19;100.00;102370.59;5004322;28;20033;-58
2022/01/16 09:11:37;;;;;;;84.05;40.83;;;;;;;3.28;100.00;102368.88;5003111;28;20061;-59
2022/01/16 09:14:02;;;;;;;85.57;42.33;;;;;;;3.26;100.00;102379.03;4990169;28;20042;-59
2022/01/16 09:16:28;;;;;;;91.20;43.38;;;;;;;3.26;100.00;102363.59;4995096;28;20034;-59
2022/01/16 09:18:53;;;;;;;84.43;40.85;;;;;;;3.36;100.00;102377.16;4984929;28;20019;-59
2022/01/16 09:21:18;;;;;;;89.45;42.85;;;;;;;3.35;100.00;102383.59;4999377;28;20026;-59
2022/01/16 09:23:45;;;;;;;90.95;46.10;;;;;;;3.38;100.00;102383.28;5002444;28;20026;-59
2022/01/16 09:26:10;;;;;;;92.45;45.33;;;;;;;3.38;100.00;102386.00;4990678;28;20108;-59
2022/01/16 09:28:35;;;;;;;94.10;42.95;;;;;;;3.43;100.00;102386.41;5003188;28;20080;-59
2022/01/16 09:31:00;;;;;;;95.45;43.30;;;;;;;3.48;100.00;102389.56;5005317;28;20389;-59
2022/01/16 09:33:26;;;;;;;96.93;46.40;;;;;;;3.46;100.00;102397.00;5004446;28;20088;-59
2022/01/16 09:35:51;;;;;;;97.70;47.22;;;;;;;3.54;100.00;102398.97;5004626;28;20076;-59
2022/01/16 09:38:17;;;;;;;91.57;43.50;;;;;;;3.57;100.00;102404.97;5005172;28;20334;-59
2022/01/16 09:40:44;;;;;;;95.28;43.60;;;;;;;3.63;100.00;102411.69;5002826;28;20038;-59
2022/01/16 09:43:10;;;;;;;103.28;45.20;;;;;;;3.72;100.00;102404.50;5003355;28;20504;-60
2022/01/16 09:45:36;;;;;;;104.07;46.22;;;;;;;3.75;100.00;102413.25;5002791;28;20046;-60
2022/01/16 09:48:02;;;;;;;100.43;45.13;;;;;;;3.76;100.00;102420.38;5003759;28;20018;-59
2022/01/16 09:50:28;;;;;;;115.82;49.47;;;;;;;3.75;100.00;102418.69;5002078;28;20034;-59
2022/01/16 09:52:54;;;;;;;114.88;50.90;;;;;;;3.76;100.00;102408.66;5004998;28;20030;-59
2022/01/16 09:55:20;;;;;;;126.93;52.85;;;;;;;3.85;100.00;102415.91;4999795;28;20085;-59
2022/01/16 09:57:47;;;;;;;126.00;51.58;;;;;;;3.84;100.00;102414.19;4984299;28;20046;-59
2022/01/16 10:00:17;;;;;;;122.97;53.20;;;;;;;3.89;100.00;102418.16;4995128;28;20512;-59
2022/01/16 10:02:43;;;;;;;123.60;46.05;;;;;;;3.98;100.00;102435.47;4998475;28;20361;-59
2022/01/16 10:05:31;;;;;;;121.70;50.58;;;;;;;3.98;100.00;102440.91;4985471;28;20038;-59
2022/01/16 10:08:00;;;;;;;122.40;49.50;;;;;;;3.93;100.00;102439.63;4985416;28;20034;-59
2022/01/16 10:10:27;;;;;;;136.60;51.53;;;;;;;3.89;100.00;102439.91;4988329;28;20018;-59
2022/01/16 10:12:55;;;;;;;141.30;53.15;;;;;;;3.90;100.00;102443.50;4998098;28;20050;-59
2022/01/16 10:15:27;;;;;;;141.20;51.40;;;;;;;3.96;100.00;102447.50;4984983;28;20033;-59
2022/01/16 10:17:57;;;;;;;141.23;50.90;;;;;;;3.92;100.00;102455.09;4984793;28;20027;-59
2022/01/16 10:20:24;;;;;;;144.52;53.42;;;;;;;4.02;100.00;102447.75;4991437;28;20026;-59
2022/01/16 10:22:51;;;;;;;133.13;52.13;;;;;;;4.01;100.00;102456.06;5004070;28;20037;-59
2022/01/16 10:25:35;;;;;;;129.32;49.17;;;;;;;4.12;100.00;102453.16;5001533;28;20030;-59
2022/01/16 10:28:12;;;;;;;146.82;52.53;;;;;;;4.13;100.00;102450.28;4988547;28;20034;-59
2022/01/16 10:30:43;;;;;;;125.05;48.45;;;;;;;4.25;100.00;102447.38;4993040;28;20097;-59
2022/01/16 10:33:21;;;;;;;132.15;50.67;;;;;;;4.30;100.00;102455.94;5003969;28;20457;-60
2022/01/16 10:35:48;;;;;;;133.98;48.60;;;;;;;4.41;100.00;102453.03;5004103;28;20037;-60
2022/01/16 10:38:21;;;;;;;121.85;48.38;;;;;;;4.43;100.00;102467.34;5004087;28;20385;-59
2022/01/16 10:40:51;;;;;;;130.43;50.05;;;;;;;4.43;100.00;102462.75;5002244;28;20065;-60
2022/01/16 10:43:34;;;;;;;121.97;48.40;;;;;;;4.57;100.00;102464.13;5003737;28;20357;-60
2022/01/16 10:46:00;;;;;;;123.55;47.40;;;;;;;4.65;99.75;102466.91;5004330;28;20462;-59
2022/01/16 10:48:25;;;;;;;133.05;49.15;;;;;;;4.74;98.62;102467.03;5003950;28;20083;-59
2022/01/16 10:50:51;;;;;;;121.05;47.45;;;;;;;4.88;98.99;102458.34;5004282;28;20072;-59
2022/01/16 10:53:22;;;;;;;115.18;44.83;;;;;;;4.94;97.99;102455.84;5003603;28;20087;-59
2022/01/16 10:55:53;;;;;;;110.97;45.75;;;;;;;4.86;98.10;102461.19;5001258;28;20026;-58
2022/01/16 10:58:27;;;;;;;109.82;44.88;;;;;;;4.82;98.27;102456.25;5003044;28;20054;-59
2022/01/16 11:00:59;;;;;;;107.93;43.75;;;;;;;4.80;97.78;102458.25;4986739;28;20053;-59
2022/01/16 11:03:26;;;;;;;110.93;46.15;;;;;;;4.71;98.19;102454.56;4989329;28;20041;-59
2022/01/16 11:05:51;;;;;;;112.47;45.10;;;;;;;4.64;98.72;102461.63;4996959;28;20278;-59
2022/01/16 11:08:21;;;;;;;115.95;46.72;;;;;;;4.66;98.67;102468.66;5001736;28;20014;-59
2022/01/16 11:10:51;;;;;;;121.32;48.10;;;;;;;4.66;98.76;102463.22;5004537;28;20030;-59
2022/01/16 11:13:21;;;;;;;118.47;48.20;;;;;;;4.66;99.24;102465.94;5000946;28;20029;-58
2022/01/16 11:15:50;;;;;;;117.50;46.67;;;;;;;4.72;98.82;102467.19;4998042;28;20031;-58
2022/01/16 11:18:15;;;;;;;117.78;44.65;;;;;;;4.78;98.57;102465.72;5000088;28;20738;-59
2022/01/16 11:20:45;;;;;;;124.50;47.00;;;;;;;4.79;99.15;102475.59;4987672;28;20034;-58
2022/01/16 11:23:28;;;;;;;114.72;45.03;;;;;;;4.78;98.55;102471.16;4993685;28;20425;-59
2022/01/16 11:26:05;;;;;;;110.35;45.67;;;;;;;4.76;99.24;102475.88;4991992;28;20080;-59
2022/01/16 11:28:32;;;;;;;105.97;43.80;;;;;;;4.80;98.54;102472.69;5003431;28;20044;-59
2022/01/16 11:31:00;;;;;;;109.70;44.15;;;;;;;4.78;98.64;102473.88;5003451;28;20026;-59
2022/01/16 11:33:28;;;;;;;122.28;46.25;;;;;;;4.72;99.46;102478.06;4987273;28;20033;-59
2022/01/16 11:36:02;;;;;;;112.75;45.92;;;;;;;4.69;99.83;102471.06;4994981;28;20508;-59
2022/01/16 11:38:34;;;;;;;117.85;47.42;;;;;;;4.73;100.00;102473.47;5007093;28;20397;-59
2022/01/16 11:41:04;;;;;;;115.63;42.95;;;;;;;4.71;100.00;102480.94;5006334;28;20030;-59
2022/01/16 11:43:37;;;;;;;123.32;46.58;;;;;;;4.82;100.00;102473.44;4996547;28;20030;-59
2022/01/16 11:46:15;;;;;;;119.22;46.17;;;;;;;4.70;99.80;102469.19;4993056;28;20057;-59
2022/01/16 11:48:47;;;;;;;122.07;47.90;;;;;;;4.74;99.43;102469.75;4998859;28;20034;-60
2022/01/16 11:51:40;;;;;;;124.68;47.40;;;;;;;4.68;100.00;102474.78;4998399;28;20099;-59